sensor_id;sensor_type;location;lat;lon;timestamp;temperature;humidity
5901;DHT22;2976;49.764;9.796;2022-12-07T00:01:11;1.00;99.90
5901;DHT22;2976;49.764;9.796;2022-12-07T00:03:38;1.00;99.90
5901;DHT22;2976;49.764;9.796;2022-12-07T00:06:05;1.00;99.90
5901;DHT22;2976;49.764;9.796;2022-12-07T00:08:32;1.00;99.90
5901;DHT22;2976;49.764;9.796;2022-12-07T00:11:03;1.00;99.90
5901;DHT22;2976;49.764;9.796;2022-12-07T00:13:31;1.00;99.90
5901;DHT22;2976;49.764;9.796;2022-12-07T00:16:01;1.00;99.90
5901;DHT22;2976;49.764;9.796;2022-12-07T00:18:27;1.00;99.90
5901;DHT22;2976;49.764;9.796;2022-12-07T00:20:52;1.00;99.90
5901;DHT22;2976;49.764;9.796;2022-12-07T00:23:18;1.00;99.90
5901;DHT22;2976;49.764;9.796;2022-12-07T00:25:43;1.10;99.90
5901;DHT22;2976;49.764;9.796;2022-12-07T00:28:09;1.20;99.90
5901;DHT22;2976;49.764;9.796;2022-12-07T00:30:36;1.30;99.90
5901;DHT22;2976;49.764;9.796;2022-12-07T00:33:01;1.40;99.90
5901;DHT22;2976;49.764;9.796;2022-12-07T00:35:27;1.40;99.90
5901;DHT22;2976;49.764;9.796;2022-12-07T00:37:52;1.40;99.90
5901;DHT22;2976;49.764;9.796;2022-12-07T00:40:18;1.40;99.90
5901;DHT22;2976;49.764;9.796;2022-12-07T00:42:43;1.40;99.90
5901;DHT22;2976;49.764;9.796;2022-12-07T00:45:09;1.50;99.90
5901;DHT22;2976;49.764;9.796;2022-12-07T00:47:34;1.50;99.90
5901;DHT22;2976;49.764;9.796;2022-12-07T00:50:00;1.60;99.90
5901;DHT22;2976;49.764;9.796;2022-12-07T00:52:26;1.50;99.90
5901;DHT22;2976;49.764;9.796;2022-12-07T00:54:51;1.60;99.90
5901;DHT22;2976;49.764;9.796;2022-12-07T00:57:17;1.60;99.90
5901;DHT22;2976;49.764;9.796;2022-12-07T00:59:42;1.60;99.90
5901;DHT22;2976;49.764;9.796;2022-12-07T01:02:08;1.50;99.90
5901;DHT22;2976;49.764;9.796;2022-12-07T01:04:34;1.40;99.90
5901;DHT22;2976;49.764;9.796;2022-12-07T01:06:59;1.40;99.90
5901;DHT22;2976;49.764;9.796;2022-12-07T01:09:25;1.40;99.90
5901;DHT22;2976;49.764;9.796;2022-12-07T01:11:51;1.50;99.90
5901;DHT22;2976;49.764;9.796;2022-12-07T01:14:17;1.50;99.90
5901;DHT22;2976;49.764;9.796;2022-12-07T01:16:43;1.50;99.90
5901;DHT22;2976;49.764;9.796;2022-12-07T01:19:09;1.40;99.90
5901;DHT22;2976;49.764;9.796;2022-12-07T01:21:35;1.40;99.90
5901;DHT22;2976;49.764;9.796;2022-12-07T01:24:04;1.30;99.90
5901;DHT22;2976;49.764;9.796;2022-12-07T01:26:30;1.30;99.90
5901;DHT22;2976;49.764;9.796;2022-12-07T01:28:56;1.30;99.90
5901;DHT22;2976;49.764;9.796;2022-12-07T01:31:25;1.30;99.90
5901;DHT22;2976;49.764;9.796;2022-12-07T01:33:53;1.20;99.90
5901;DHT22;2976;49.764;9.796;2022-12-07T01:36:33;1.20;99.90
5901;DHT22;2976;49.764;9.796;2022-12-07T01:39:02;1.40;99.90
5901;DHT22;2976;49.764;9.796;2022-12-07T01:41:30;1.40;99.90
5901;DHT22;2976;49.764;9.796;2022-12-07T01:44:09;1.30;99.90
5901;DHT22;2976;49.764;9.796;2022-12-07T01:46:35;1.30;99.90
5901;DHT22;2976;49.764;9.796;2022-12-07T01:49:01;1.40;99.90
5901;DHT22;2976;49.764;9.796;2022-12-07T01:51:29;1.40;99.90
5901;DHT22;2976;49.764;9.796;2022-12-07T01:53:55;1.30;99.90
5901;DHT22;2976;49.764;9.796;2022-12-07T01:56:24;1.30;99.90
5901;DHT22;2976;49.764;9.796;2022-12-07T01:58:51;1.30;99.90
5901;DHT22;2976;49.764;9.796;2022-12-07T02:01:17;1.40;99.90
5901;DHT22;2976;49.764;9.796;2022-12-07T02:03:44;1.50;99.90
5901;DHT22;2976;49.764;9.796;2022-12-07T02:06:12;1.40;99.90
5901;DHT22;2976;49.764;9.796;2022-12-07T02:08:38;1.40;99.90
5901;DHT22;2976;49.764;9.796;2022-12-07T02:11:05;1.30;99.90
5901;DHT22;2976;49.764;9.796;2022-12-07T02:13:34;1.30;99.90
5901;DHT22;2976;49.764;9.796;2022-12-07T02:29:25;1.20;99.90
5901;DHT22;2976;49.764;9.796;2022-12-07T02:32:10;1.20;99.90
5901;DHT22;2976;49.764;9.796;2022-12-07T02:35:04;1.20;99.90
5901;DHT22;2976;49.764;9.796;2022-12-07T02:37:39;1.20;99.90
5901;DHT22;2976;49.764;9.796;2022-12-07T02:40:18;1.20;99.90
5901;DHT22;2976;49.764;9.796;2022-12-07T02:42:48;1.30;99.90
5901;DHT22;2976;49.764;9.796;2022-12-07T02:45:17;1.30;99.90
5901;DHT22;2976;49.764;9.796;2022-12-07T02:47:48;1.30;99.90
5901;DHT22;2976;49.764;9.796;2022-12-07T02:50:19;1.40;99.90
5901;DHT22;2976;49.764;9.796;2022-12-07T02:52:45;1.30;99.90
5901;DHT22;2976;49.764;9.796;2022-12-07T02:55:11;1.30;99.90
5901;DHT22;2976;49.764;9.796;2022-12-07T03:00:18;1.40;99.90
5901;DHT22;2976;49.764;9.796;2022-12-07T03:05:44;1.40;99.90
5901;DHT22;2976;49.764;9.796;2022-12-07T03:11:09;1.40;99.90
5901;DHT22;2976;49.764;9.796;2022-12-07T03:13:59;1.50;99.90
5901;DHT22;2976;49.764;9.796;2022-12-07T03:16:27;1.40;99.90
5901;DHT22;2976;49.764;9.796;2022-12-07T03:21:37;1.40;99.90
5901;DHT22;2976;49.764;9.796;2022-12-07T03:24:09;1.40;99.90
5901;DHT22;2976;49.764;9.796;2022-12-07T03:26:40;1.40;99.90
5901;DHT22;2976;49.764;9.796;2022-12-07T03:29:19;1.40;99.90
5901;DHT22;2976;49.764;9.796;2022-12-07T03:31:51;1.30;99.90
5901;DHT22;2976;49.764;9.796;2022-12-07T03:34:48;1.40;99.90
5901;DHT22;2976;49.764;9.796;2022-12-07T03:37:23;1.50;99.90
5901;DHT22;2976;49.764;9.796;2022-12-07T03:39:58;1.50;99.90
5901;DHT22;2976;49.764;9.796;2022-12-07T03:42:28;1.40;99.90
5901;DHT22;2976;49.764;9.796;2022-12-07T03:44:54;1.40;99.90
5901;DHT22;2976;49.764;9.796;2022-12-07T03:47:47;1.40;99.90
5901;DHT22;2976;49.764;9.796;2022-12-07T03:50:28;1.40;99.90
5901;DHT22;2976;49.764;9.796;2022-12-07T03:53:13;1.40;99.90
5901;DHT22;2976;49.764;9.796;2022-12-07T03:55:43;1.50;99.90
5901;DHT22;2976;49.764;9.796;2022-12-07T03:58:15;1.40;99.90
5901;DHT22;2976;49.764;9.796;2022-12-07T04:00:42;1.50;99.90
5901;DHT22;2976;49.764;9.796;2022-12-07T04:03:09;1.50;99.90
5901;DHT22;2976;49.764;9.796;2022-12-07T04:05:35;1.50;99.90
5901;DHT22;2976;49.764;9.796;2022-12-07T04:08:01;1.40;99.90
5901;DHT22;2976;49.764;9.796;2022-12-07T04:10:26;1.40;99.90
5901;DHT22;2976;49.764;9.796;2022-12-07T04:12:52;1.40;99.90
5901;DHT22;2976;49.764;9.796;2022-12-07T04:15:17;1.40;99.90
5901;DHT22;2976;49.764;9.796;2022-12-07T04:17:43;1.40;99.90
5901;DHT22;2976;49.764;9.796;2022-12-07T04:20:09;1.50;99.90
5901;DHT22;2976;49.764;9.796;2022-12-07T04:22:35;1.50;99.90
5901;DHT22;2976;49.764;9.796;2022-12-07T04:25:00;1.50;99.90
5901;DHT22;2976;49.764;9.796;2022-12-07T04:27:26;1.60;99.90
5901;DHT22;2976;49.764;9.796;2022-12-07T04:29:51;1.60;99.90
5901;DHT22;2976;49.764;9.796;2022-12-07T04:32:17;1.60;99.90
5901;DHT22;2976;49.764;9.796;2022-12-07T04:34:43;1.60;99.90
5901;DHT22;2976;49.764;9.796;2022-12-07T04:37:08;1.60;99.90
5901;DHT22;2976;49.764;9.796;2022-12-07T04:39:34;1.60;99.90
5901;DHT22;2976;49.764;9.796;2022-12-07T04:42:00;1.60;99.90
5901;DHT22;2976;49.764;9.796;2022-12-07T04:44:27;1.60;99.90
5901;DHT22;2976;49.764;9.796;2022-12-07T04:46:54;1.50;99.90
5901;DHT22;2976;49.764;9.796;2022-12-07T04:49:20;1.60;99.90
5901;DHT22;2976;49.764;9.796;2022-12-07T04:51:47;1.70;99.90
5901;DHT22;2976;49.764;9.796;2022-12-07T04:54:14;1.60;99.90
5901;DHT22;2976;49.764;9.796;2022-12-07T04:56:40;1.60;99.90
5901;DHT22;2976;49.764;9.796;2022-12-07T04:59:06;1.60;99.90
5901;DHT22;2976;49.764;9.796;2022-12-07T05:01:32;1.70;99.90
5901;DHT22;2976;49.764;9.796;2022-12-07T05:03:58;1.70;99.90
5901;DHT22;2976;49.764;9.796;2022-12-07T05:06:23;1.70;99.90
5901;DHT22;2976;49.764;9.796;2022-12-07T05:08:49;1.60;99.90
5901;DHT22;2976;49.764;9.796;2022-12-07T05:11:15;1.60;99.90
5901;DHT22;2976;49.764;9.796;2022-12-07T05:13:59;1.70;99.90
5901;DHT22;2976;49.764;9.796;2022-12-07T05:16:24;1.70;99.90
5901;DHT22;2976;49.764;9.796;2022-12-07T05:18:50;1.60;99.90
5901;DHT22;2976;49.764;9.796;2022-12-07T05:21:16;1.70;99.90
5901;DHT22;2976;49.764;9.796;2022-12-07T05:23:41;1.60;99.90
5901;DHT22;2976;49.764;9.796;2022-12-07T05:26:07;1.60;99.90
5901;DHT22;2976;49.764;9.796;2022-12-07T05:28:32;1.60;99.90
5901;DHT22;2976;49.764;9.796;2022-12-07T05:30:58;1.50;99.90
5901;DHT22;2976;49.764;9.796;2022-12-07T05:33:23;1.50;99.90
5901;DHT22;2976;49.764;9.796;2022-12-07T05:35:49;1.60;99.90
5901;DHT22;2976;49.764;9.796;2022-12-07T05:38:14;1.60;99.90
5901;DHT22;2976;49.764;9.796;2022-12-07T05:40:40;1.60;99.90
5901;DHT22;2976;49.764;9.796;2022-12-07T05:43:05;1.60;99.90
5901;DHT22;2976;49.764;9.796;2022-12-07T05:45:31;1.70;99.90
5901;DHT22;2976;49.764;9.796;2022-12-07T05:47:57;1.70;99.90
5901;DHT22;2976;49.764;9.796;2022-12-07T05:50:22;1.70;99.90
5901;DHT22;2976;49.764;9.796;2022-12-07T05:52:48;1.70;99.90
5901;DHT22;2976;49.764;9.796;2022-12-07T05:55:13;1.70;99.90
5901;DHT22;2976;49.764;9.796;2022-12-07T05:57:39;1.80;99.90
5901;DHT22;2976;49.764;9.796;2022-12-07T06:00:05;1.80;99.90
5901;DHT22;2976;49.764;9.796;2022-12-07T06:02:31;1.80;99.90
5901;DHT22;2976;49.764;9.796;2022-12-07T06:04:56;1.80;99.90
5901;DHT22;2976;49.764;9.796;2022-12-07T06:07:22;1.80;99.90
5901;DHT22;2976;49.764;9.796;2022-12-07T06:09:47;1.80;99.90
5901;DHT22;2976;49.764;9.796;2022-12-07T06:12:13;1.80;99.90
5901;DHT22;2976;49.764;9.796;2022-12-07T06:14:58;1.80;99.90
5901;DHT22;2976;49.764;9.796;2022-12-07T06:17:23;1.80;99.90
5901;DHT22;2976;49.764;9.796;2022-12-07T06:19:49;1.80;99.90
5901;DHT22;2976;49.764;9.796;2022-12-07T06:22:14;1.80;99.90
5901;DHT22;2976;49.764;9.796;2022-12-07T06:24:41;1.80;99.90
5901;DHT22;2976;49.764;9.796;2022-12-07T06:27:07;1.80;99.90
5901;DHT22;2976;49.764;9.796;2022-12-07T06:29:33;1.80;99.90
5901;DHT22;2976;49.764;9.796;2022-12-07T06:31:59;1.80;99.90
5901;DHT22;2976;49.764;9.796;2022-12-07T06:34:25;1.80;99.90
5901;DHT22;2976;49.764;9.796;2022-12-07T06:36:52;1.80;99.90
5901;DHT22;2976;49.764;9.796;2022-12-07T06:39:20;1.80;99.90
5901;DHT22;2976;49.764;9.796;2022-12-07T06:41:46;1.80;99.90
5901;DHT22;2976;49.764;9.796;2022-12-07T06:44:11;1.80;99.90
5901;DHT22;2976;49.764;9.796;2022-12-07T06:46:37;1.80;99.90
5901;DHT22;2976;49.764;9.796;2022-12-07T06:49:04;1.80;99.90
5901;DHT22;2976;49.764;9.796;2022-12-07T06:51:29;1.90;99.90
5901;DHT22;2976;49.764;9.796;2022-12-07T06:53:55;1.80;99.90
5901;DHT22;2976;49.764;9.796;2022-12-07T06:56:21;1.80;99.90
5901;DHT22;2976;49.764;9.796;2022-12-07T06:58:48;1.80;99.90
5901;DHT22;2976;49.764;9.796;2022-12-07T07:01:16;1.90;99.90
5901;DHT22;2976;49.764;9.796;2022-12-07T07:03:42;1.90;99.90
5901;DHT22;2976;49.764;9.796;2022-12-07T07:06:08;2.00;99.90
5901;DHT22;2976;49.764;9.796;2022-12-07T07:08:35;2.00;99.90
5901;DHT22;2976;49.764;9.796;2022-12-07T07:11:01;2.00;99.90
5901;DHT22;2976;49.764;9.796;2022-12-07T07:13:27;1.90;99.90
5901;DHT22;2976;49.764;9.796;2022-12-07T07:15:53;2.00;99.90
5901;DHT22;2976;49.764;9.796;2022-12-07T07:18:19;2.00;99.90
5901;DHT22;2976;49.764;9.796;2022-12-07T07:20:45;2.00;99.90
5901;DHT22;2976;49.764;9.796;2022-12-07T07:23:10;2.10;99.90
5901;DHT22;2976;49.764;9.796;2022-12-07T07:25:36;2.10;99.90
5901;DHT22;2976;49.764;9.796;2022-12-07T07:28:02;2.10;99.90
5901;DHT22;2976;49.764;9.796;2022-12-07T07:30:28;2.10;99.90
5901;DHT22;2976;49.764;9.796;2022-12-07T07:33:00;2.10;99.90
5901;DHT22;2976;49.764;9.796;2022-12-07T07:35:27;2.00;99.90
5901;DHT22;2976;49.764;9.796;2022-12-07T07:37:53;2.00;99.90
5901;DHT22;2976;49.764;9.796;2022-12-07T07:40:19;2.00;99.90
5901;DHT22;2976;49.764;9.796;2022-12-07T07:42:50;2.00;99.90
5901;DHT22;2976;49.764;9.796;2022-12-07T07:45:16;1.90;99.90
5901;DHT22;2976;49.764;9.796;2022-12-07T07:47:42;1.90;99.90
5901;DHT22;2976;49.764;9.796;2022-12-07T07:50:07;2.00;99.90
5901;DHT22;2976;49.764;9.796;2022-12-07T07:52:33;2.00;99.90
5901;DHT22;2976;49.764;9.796;2022-12-07T07:54:59;2.00;99.90
5901;DHT22;2976;49.764;9.796;2022-12-07T07:57:24;2.00;99.90
5901;DHT22;2976;49.764;9.796;2022-12-07T07:59:50;2.10;99.90
5901;DHT22;2976;49.764;9.796;2022-12-07T08:02:17;2.10;99.90
5901;DHT22;2976;49.764;9.796;2022-12-07T08:04:44;2.10;99.90
5901;DHT22;2976;49.764;9.796;2022-12-07T08:07:10;2.10;99.90
5901;DHT22;2976;49.764;9.796;2022-12-07T08:09:36;2.10;99.90
5901;DHT22;2976;49.764;9.796;2022-12-07T08:12:01;2.20;99.90
5901;DHT22;2976;49.764;9.796;2022-12-07T08:14:27;2.20;99.90
5901;DHT22;2976;49.764;9.796;2022-12-07T08:16:54;2.20;99.90
5901;DHT22;2976;49.764;9.796;2022-12-07T08:19:19;2.10;99.90
5901;DHT22;2976;49.764;9.796;2022-12-07T08:21:45;2.10;99.90
5901;DHT22;2976;49.764;9.796;2022-12-07T08:24:10;2.20;99.90
5901;DHT22;2976;49.764;9.796;2022-12-07T08:26:36;2.30;99.90
5901;DHT22;2976;49.764;9.796;2022-12-07T08:29:02;2.30;99.90
5901;DHT22;2976;49.764;9.796;2022-12-07T08:31:28;2.30;99.90
5901;DHT22;2976;49.764;9.796;2022-12-07T08:33:54;2.40;99.90
5901;DHT22;2976;49.764;9.796;2022-12-07T08:36:20;2.30;99.90
5901;DHT22;2976;49.764;9.796;2022-12-07T08:38:47;2.40;99.90
5901;DHT22;2976;49.764;9.796;2022-12-07T08:41:12;2.40;99.90
5901;DHT22;2976;49.764;9.796;2022-12-07T08:43:38;2.40;99.90
5901;DHT22;2976;49.764;9.796;2022-12-07T08:46:23;2.40;99.90
5901;DHT22;2976;49.764;9.796;2022-12-07T08:48:54;2.40;99.90
5901;DHT22;2976;49.764;9.796;2022-12-07T08:51:21;2.50;99.90
5901;DHT22;2976;49.764;9.796;2022-12-07T08:53:48;2.50;99.90
5901;DHT22;2976;49.764;9.796;2022-12-07T08:56:15;2.50;99.90
5901;DHT22;2976;49.764;9.796;2022-12-07T08:58:40;2.50;99.90
5901;DHT22;2976;49.764;9.796;2022-12-07T09:01:06;2.50;99.90
5901;DHT22;2976;49.764;9.796;2022-12-07T09:03:32;2.60;99.90
5901;DHT22;2976;49.764;9.796;2022-12-07T09:05:58;2.60;99.90
5901;DHT22;2976;49.764;9.796;2022-12-07T09:08:31;2.60;99.90
5901;DHT22;2976;49.764;9.796;2022-12-07T09:10:57;2.70;99.90
5901;DHT22;2976;49.764;9.796;2022-12-07T09:13:23;2.70;99.90
5901;DHT22;2976;49.764;9.796;2022-12-07T09:15:48;2.70;99.90
5901;DHT22;2976;49.764;9.796;2022-12-07T09:18:14;2.70;99.90
5901;DHT22;2976;49.764;9.796;2022-12-07T09:20:39;2.80;99.90
5901;DHT22;2976;49.764;9.796;2022-12-07T09:23:06;2.80;99.90
5901;DHT22;2976;49.764;9.796;2022-12-07T09:25:33;2.80;99.90
5901;DHT22;2976;49.764;9.796;2022-12-07T09:27:59;2.80;99.90
5901;DHT22;2976;49.764;9.796;2022-12-07T09:30:26;2.90;99.90
5901;DHT22;2976;49.764;9.796;2022-12-07T09:32:56;2.90;99.90
5901;DHT22;2976;49.764;9.796;2022-12-07T09:35:23;2.90;99.90
5901;DHT22;2976;49.764;9.796;2022-12-07T09:37:48;3.00;99.90
5901;DHT22;2976;49.764;9.796;2022-12-07T09:40:17;3.00;99.90
5901;DHT22;2976;49.764;9.796;2022-12-07T09:42:47;3.00;99.90
5901;DHT22;2976;49.764;9.796;2022-12-07T09:45:31;3.00;99.90
5901;DHT22;2976;49.764;9.796;2022-12-07T09:47:58;3.10;99.90
5901;DHT22;2976;49.764;9.796;2022-12-07T09:50:26;3.10;99.90
5901;DHT22;2976;49.764;9.796;2022-12-07T09:52:54;3.10;99.90
5901;DHT22;2976;49.764;9.796;2022-12-07T09:55:26;3.10;99.90
5901;DHT22;2976;49.764;9.796;2022-12-07T09:57:52;3.20;99.90
5901;DHT22;2976;49.764;9.796;2022-12-07T10:00:20;3.30;99.90
5901;DHT22;2976;49.764;9.796;2022-12-07T10:02:52;3.20;99.90
5901;DHT22;2976;49.764;9.796;2022-12-07T10:05:32;3.20;99.90
5901;DHT22;2976;49.764;9.796;2022-12-07T10:08:00;3.20;99.90
5901;DHT22;2976;49.764;9.796;2022-12-07T10:10:33;3.30;99.90
5901;DHT22;2976;49.764;9.796;2022-12-07T10:13:08;3.40;99.90
5901;DHT22;2976;49.764;9.796;2022-12-07T10:15:53;3.50;99.90
5901;DHT22;2976;49.764;9.796;2022-12-07T10:18:40;3.50;99.90
5901;DHT22;2976;49.764;9.796;2022-12-07T10:21:16;3.40;99.90
5901;DHT22;2976;49.764;9.796;2022-12-07T10:26:38;3.30;99.90
5901;DHT22;2976;49.764;9.796;2022-12-07T10:32:49;3.40;99.90
5901;DHT22;2976;49.764;9.796;2022-12-07T10:34:44;3.40;99.90
5901;DHT22;2976;49.764;9.796;2022-12-07T10:39:52;3.40;99.90
5901;DHT22;2976;49.764;9.796;2022-12-07T10:42:29;3.40;99.90
5901;DHT22;2976;49.764;9.796;2022-12-07T10:48:19;3.50;99.90
5901;DHT22;2976;49.764;9.796;2022-12-07T10:53:58;3.50;99.90
5901;DHT22;2976;49.764;9.796;2022-12-07T10:57:01;3.50;99.90
5901;DHT22;2976;49.764;9.796;2022-12-07T11:02:24;3.50;99.90
5901;DHT22;2976;49.764;9.796;2022-12-07T11:07:50;3.60;99.90
5901;DHT22;2976;49.764;9.796;2022-12-07T11:10:41;3.70;99.90
5901;DHT22;2976;49.764;9.796;2022-12-07T11:16:14;3.80;99.90
5901;DHT22;2976;49.764;9.796;2022-12-07T11:18:51;3.80;99.90
5901;DHT22;2976;49.764;9.796;2022-12-07T11:21:29;3.70;99.90
5901;DHT22;2976;49.764;9.796;2022-12-07T11:24:10;3.70;99.90
5901;DHT22;2976;49.764;9.796;2022-12-07T11:29:53;3.70;99.90
5901;DHT22;2976;49.764;9.796;2022-12-07T11:32:35;3.70;99.90
5901;DHT22;2976;49.764;9.796;2022-12-07T11:35:11;3.70;99.90
5901;DHT22;2976;49.764;9.796;2022-12-07T11:37:39;3.70;99.90
5901;DHT22;2976;49.764;9.796;2022-12-07T11:40:33;3.80;99.90
5901;DHT22;2976;49.764;9.796;2022-12-07T11:43:05;3.90;99.90
5901;DHT22;2976;49.764;9.796;2022-12-07T11:45:37;4.00;99.90
5901;DHT22;2976;49.764;9.796;2022-12-07T11:48:33;3.90;99.90
5901;DHT22;2976;49.764;9.796;2022-12-07T11:50:57;3.90;99.90
5901;DHT22;2976;49.764;9.796;2022-12-07T11:53:28;3.80;99.90
5901;DHT22;2976;49.764;9.796;2022-12-07T11:56:16;3.90;99.90
5901;DHT22;2976;49.764;9.796;2022-12-07T11:59:00;3.90;99.90
5901;DHT22;2976;49.764;9.796;2022-12-07T12:01:50;4.00;99.90
5901;DHT22;2976;49.764;9.796;2022-12-07T12:04:34;4.00;99.90
5901;DHT22;2976;49.764;9.796;2022-12-07T12:07:06;4.10;99.90
5901;DHT22;2976;49.764;9.796;2022-12-07T12:09:47;4.10;99.90
5901;DHT22;2976;49.764;9.796;2022-12-07T12:14:46;4.10;99.90
5901;DHT22;2976;49.764;9.796;2022-12-07T12:22:39;4.10;99.90
5901;DHT22;2976;49.764;9.796;2022-12-07T12:25:15;4.10;99.90
5901;DHT22;2976;49.764;9.796;2022-12-07T12:27:46;4.10;99.90
5901;DHT22;2976;49.764;9.796;2022-12-07T12:30:37;4.20;99.90
5901;DHT22;2976;49.764;9.796;2022-12-07T12:33:14;4.10;99.90
5901;DHT22;2976;49.764;9.796;2022-12-07T12:35:40;4.10;99.90
5901;DHT22;2976;49.764;9.796;2022-12-07T12:38:31;4.10;99.90
5901;DHT22;2976;49.764;9.796;2022-12-07T12:41:00;4.00;99.90
5901;DHT22;2976;49.764;9.796;2022-12-07T12:43:52;4.00;99.90
5901;DHT22;2976;49.764;9.796;2022-12-07T12:51:49;3.80;99.90
5901;DHT22;2976;49.764;9.796;2022-12-07T12:54:20;3.80;99.90
5901;DHT22;2976;49.764;9.796;2022-12-07T12:59:32;3.90;99.90
5901;DHT22;2976;49.764;9.796;2022-12-07T13:02:30;3.90;99.90
5901;DHT22;2976;49.764;9.796;2022-12-07T13:07:51;3.90;99.90
5901;DHT22;2976;49.764;9.796;2022-12-07T13:31:45;3.90;99.90
5901;DHT22;2976;49.764;9.796;2022-12-07T13:34:34;3.80;99.90
5901;DHT22;2976;49.764;9.796;2022-12-07T13:37:12;3.90;99.90
5901;DHT22;2976;49.764;9.796;2022-12-07T13:39:51;4.00;99.90
5901;DHT22;2976;49.764;9.796;2022-12-07T13:42:31;3.90;99.90
5901;DHT22;2976;49.764;9.796;2022-12-07T13:44:59;3.90;99.90
5901;DHT22;2976;49.764;9.796;2022-12-07T13:47:41;3.80;99.90
5901;DHT22;2976;49.764;9.796;2022-12-07T13:50:29;3.80;99.90
5901;DHT22;2976;49.764;9.796;2022-12-07T13:53:00;3.80;99.90
5901;DHT22;2976;49.764;9.796;2022-12-07T13:55:27;3.90;99.90
5901;DHT22;2976;49.764;9.796;2022-12-07T13:57:54;3.90;99.90
5901;DHT22;2976;49.764;9.796;2022-12-07T14:00:23;3.80;99.90
5901;DHT22;2976;49.764;9.796;2022-12-07T14:03:26;3.70;99.90
5901;DHT22;2976;49.764;9.796;2022-12-07T14:08:30;3.60;99.90
5901;DHT22;2976;49.764;9.796;2022-12-07T14:10:57;3.60;99.90
5901;DHT22;2976;49.764;9.796;2022-12-07T14:13:35;3.60;99.90
5901;DHT22;2976;49.764;9.796;2022-12-07T14:16:18;3.60;99.90
5901;DHT22;2976;49.764;9.796;2022-12-07T14:18:46;3.60;99.90
5901;DHT22;2976;49.764;9.796;2022-12-07T14:23:40;3.60;99.90
5901;DHT22;2976;49.764;9.796;2022-12-07T14:26:18;3.60;99.90
5901;DHT22;2976;49.764;9.796;2022-12-07T14:28:45;3.60;99.90
5901;DHT22;2976;49.764;9.796;2022-12-07T14:31:13;3.70;99.90
5901;DHT22;2976;49.764;9.796;2022-12-07T14:33:40;3.70;99.90
5901;DHT22;2976;49.764;9.796;2022-12-07T14:36:09;3.70;99.90
5901;DHT22;2976;49.764;9.796;2022-12-07T14:38:34;3.60;99.90
5901;DHT22;2976;49.764;9.796;2022-12-07T14:41:00;3.60;99.90
5901;DHT22;2976;49.764;9.796;2022-12-07T14:43:45;3.50;99.90
5901;DHT22;2976;49.764;9.796;2022-12-07T14:46:10;3.50;99.90
5901;DHT22;2976;49.764;9.796;2022-12-07T14:48:36;3.50;99.90
5901;DHT22;2976;49.764;9.796;2022-12-07T14:51:02;3.50;99.90
5901;DHT22;2976;49.764;9.796;2022-12-07T14:53:33;3.40;99.90
5901;DHT22;2976;49.764;9.796;2022-12-07T14:56:01;3.30;99.90
5901;DHT22;2976;49.764;9.796;2022-12-07T14:58:26;3.20;99.90
5901;DHT22;2976;49.764;9.796;2022-12-07T15:00:52;3.00;99.90
5901;DHT22;2976;49.764;9.796;2022-12-07T15:03:17;2.90;99.90
5901;DHT22;2976;49.764;9.796;2022-12-07T15:05:43;2.80;99.90
5901;DHT22;2976;49.764;9.796;2022-12-07T15:08:12;2.70;99.90
5901;DHT22;2976;49.764;9.796;2022-12-07T15:10:37;2.60;99.90
5901;DHT22;2976;49.764;9.796;2022-12-07T15:13:05;2.50;99.90
5901;DHT22;2976;49.764;9.796;2022-12-07T15:15:51;2.50;99.90
5901;DHT22;2976;49.764;9.796;2022-12-07T15:18:18;2.40;99.90
5901;DHT22;2976;49.764;9.796;2022-12-07T15:20:44;2.40;99.90
5901;DHT22;2976;49.764;9.796;2022-12-07T15:23:10;2.30;99.90
5901;DHT22;2976;49.764;9.796;2022-12-07T15:25:36;2.30;99.90
5901;DHT22;2976;49.764;9.796;2022-12-07T15:28:01;2.40;99.90
5901;DHT22;2976;49.764;9.796;2022-12-07T15:30:27;2.50;99.90
5901;DHT22;2976;49.764;9.796;2022-12-07T15:32:53;2.50;99.90
5901;DHT22;2976;49.764;9.796;2022-12-07T15:35:19;2.50;99.90
5901;DHT22;2976;49.764;9.796;2022-12-07T15:37:45;2.50;99.90
5901;DHT22;2976;49.764;9.796;2022-12-07T15:40:11;2.60;99.90
5901;DHT22;2976;49.764;9.796;2022-12-07T15:42:37;2.60;99.90
5901;DHT22;2976;49.764;9.796;2022-12-07T15:45:04;2.60;99.90
5901;DHT22;2976;49.764;9.796;2022-12-07T15:47:41;2.60;99.90
5901;DHT22;2976;49.764;9.796;2022-12-07T15:50:09;2.60;99.90
5901;DHT22;2976;49.764;9.796;2022-12-07T15:52:35;2.70;99.90
5901;DHT22;2976;49.764;9.796;2022-12-07T15:55:02;2.80;99.90
5901;DHT22;2976;49.764;9.796;2022-12-07T15:57:32;2.80;99.90
5901;DHT22;2976;49.764;9.796;2022-12-07T15:59:58;2.90;99.90
5901;DHT22;2976;49.764;9.796;2022-12-07T16:02:24;2.90;99.90
5901;DHT22;2976;49.764;9.796;2022-12-07T16:04:50;2.90;99.90
5901;DHT22;2976;49.764;9.796;2022-12-07T16:07:17;2.90;99.90
5901;DHT22;2976;49.764;9.796;2022-12-07T16:09:44;2.90;99.90
5901;DHT22;2976;49.764;9.796;2022-12-07T16:12:10;2.50;99.90
5901;DHT22;2976;49.764;9.796;2022-12-07T16:14:36;2.10;99.90
5901;DHT22;2976;49.764;9.796;2022-12-07T16:17:02;1.90;99.90
5901;DHT22;2976;49.764;9.796;2022-12-07T16:19:30;1.70;99.90
5901;DHT22;2976;49.764;9.796;2022-12-07T16:21:55;1.60;99.90
5901;DHT22;2976;49.764;9.796;2022-12-07T16:24:21;1.50;99.90
5901;DHT22;2976;49.764;9.796;2022-12-07T16:26:47;1.40;99.90
5901;DHT22;2976;49.764;9.796;2022-12-07T16:29:13;1.40;99.90
5901;DHT22;2976;49.764;9.796;2022-12-07T16:31:39;1.40;99.90
5901;DHT22;2976;49.764;9.796;2022-12-07T16:34:05;1.40;99.90
5901;DHT22;2976;49.764;9.796;2022-12-07T16:36:31;1.50;99.90
5901;DHT22;2976;49.764;9.796;2022-12-07T16:38:58;1.60;99.90
5901;DHT22;2976;49.764;9.796;2022-12-07T16:41:24;1.60;99.90
5901;DHT22;2976;49.764;9.796;2022-12-07T16:43:50;1.70;99.90
5901;DHT22;2976;49.764;9.796;2022-12-07T16:46:15;1.80;99.90
5901;DHT22;2976;49.764;9.796;2022-12-07T16:48:42;1.80;99.90
5901;DHT22;2976;49.764;9.796;2022-12-07T16:51:09;1.80;99.90
5901;DHT22;2976;49.764;9.796;2022-12-07T16:53:37;1.80;99.90
5901;DHT22;2976;49.764;9.796;2022-12-07T16:56:03;1.70;99.90
5901;DHT22;2976;49.764;9.796;2022-12-07T16:58:29;1.80;99.90
5901;DHT22;2976;49.764;9.796;2022-12-07T17:00:55;1.70;99.90
5901;DHT22;2976;49.764;9.796;2022-12-07T17:03:21;1.80;99.90
5901;DHT22;2976;49.764;9.796;2022-12-07T17:05:46;1.90;99.90
5901;DHT22;2976;49.764;9.796;2022-12-07T17:08:13;2.00;99.90
5901;DHT22;2976;49.764;9.796;2022-12-07T17:10:42;2.00;99.90
5901;DHT22;2976;49.764;9.796;2022-12-07T17:13:08;2.10;99.90
5901;DHT22;2976;49.764;9.796;2022-12-07T17:15:58;2.10;99.90
5901;DHT22;2976;49.764;9.796;2022-12-07T17:18:27;2.10;99.90
5901;DHT22;2976;49.764;9.796;2022-12-07T17:20:53;2.10;99.90
5901;DHT22;2976;49.764;9.796;2022-12-07T17:23:19;2.10;99.90
5901;DHT22;2976;49.764;9.796;2022-12-07T17:25:44;2.10;99.90
5901;DHT22;2976;49.764;9.796;2022-12-07T17:28:10;2.20;99.90
5901;DHT22;2976;49.764;9.796;2022-12-07T17:30:37;2.20;99.90
5901;DHT22;2976;49.764;9.796;2022-12-07T17:33:03;2.20;99.90
5901;DHT22;2976;49.764;9.796;2022-12-07T17:35:28;2.20;99.90
5901;DHT22;2976;49.764;9.796;2022-12-07T17:37:54;2.20;99.90
5901;DHT22;2976;49.764;9.796;2022-12-07T17:40:21;2.30;99.90
5901;DHT22;2976;49.764;9.796;2022-12-07T17:42:47;2.30;99.90
5901;DHT22;2976;49.764;9.796;2022-12-07T17:45:16;2.30;99.90
5901;DHT22;2976;49.764;9.796;2022-12-07T17:47:42;2.30;99.90
5901;DHT22;2976;49.764;9.796;2022-12-07T17:50:08;2.40;99.90
5901;DHT22;2976;49.764;9.796;2022-12-07T17:52:37;2.40;99.90
5901;DHT22;2976;49.764;9.796;2022-12-07T17:55:21;2.40;99.90
5901;DHT22;2976;49.764;9.796;2022-12-07T17:57:47;2.30;99.90
5901;DHT22;2976;49.764;9.796;2022-12-07T18:00:13;2.30;99.90
5901;DHT22;2976;49.764;9.796;2022-12-07T18:02:39;2.30;99.90
5901;DHT22;2976;49.764;9.796;2022-12-07T18:05:05;2.30;99.90
5901;DHT22;2976;49.764;9.796;2022-12-07T18:07:30;2.40;99.90